Flight Track Log - Related Links

Times and Time Zones

All times are in EDT time to prevent confusion due to time zone crossing. See the ASQ6041 flight status page for this flight to view local times or setup timezone preferences in your user account.

Time Position Orientation Groundspeed Altitude Reporting Facility
EDT Latitude Longitude Course Direction KTS MPH feet Rate Location/Type
Sun 12:21:00 PM 39.8667 -103.9755 90° East  Level FlightAware Approximate
Sun 12:21:47 PM 39.9535 -104.4111 88° East 312 359 9,900  Level FlightAware ADS-B (KEIK)
Sun 12:22:00 PM 39.8667 -103.8023 90° East  Level FlightAware Approximate
Sun 12:23:00 PM 39.8901 -103.6330 85° East  Level FlightAware Approximate
Sun 12:23:09 PM 39.9167 -104.2500 88° East 363 418 11,100  Level Denver TRACON
Sun 12:24:00 PM 39.8500 -104.4936 90° East  Level FlightAware Approximate
Sun 12:24:12 PM 39.9003 -104.1192 99° East 377 434 14,000  Level Denver Center
Sun 12:25:14 PM 39.8808 -103.9850 101° East 355 409 16,800 2,129 Climbing Denver Center
Sun 12:26:16 PM 39.8742 -103.8481 94° East 380 437 18,400 1,500 Climbing Denver Center
Sun 12:27:18 PM 39.8858 -103.7086 84° East 389 448 19,900 1,694 Climbing Denver Center
Sun 12:28:20 PM 39.9025 -103.5597 82° East 408 470 21,900 1,500 Climbing Denver Center
Sun 12:29:22 PM 39.9206 -103.4089 81° East 416 479 23,000 1,548 Climbing Denver Center
Sun 12:30:24 PM 39.9419 -103.2153 82° East 444 511 25,100 2,032 Climbing Denver Center
Sun 12:31:26 PM 39.9611 -103.0581 81° East 444 511 27,200 1,887 Climbing Denver Center
Sun 12:32:28 PM 39.9878 -102.9031 77° East 442 509 29,000 1,645 Climbing Denver Center
Sun 12:33:30 PM 40.0139 -102.7472 78° East 442 509 30,600 968 Climbing Denver Center
Sun 12:34:32 PM 40.0444 -102.5608 78° East 470 541 31,000 194 Climbing Denver Center
Sun 12:35:34 PM 40.0733 -102.3892 78° East 502 578 31,000  Level Denver Center
Sun 12:36:36 PM 40.1042 -102.1964 78° East 485 558 31,000  Level Denver Center
Sun 12:37:38 PM 40.1303 -102.0369 78° East 472 543 31,000  Level Denver Center
Sun 12:38:40 PM 40.1622 -101.8344 78° East 509 586 31,000  Level Denver Center
Sun 12:39:43 PM 40.1908 -101.6597 78° East 514 592 31,000  Level Denver Center
Sun 12:40:45 PM 40.2214 -101.4558 79° East 514 592 31,000  Level Denver Center
Sun 12:41:47 PM 40.2483 -101.2831 78° East 512 589 31,000  Level Denver Center
Sun 12:42:49 PM 40.2797 -101.0803 78° East 512 589 31,000  Level Denver Center
Sun 12:43:51 PM 40.3056 -100.9108 79° East 503 579 31,000  Level Denver Center
Sun 12:44:53 PM 40.3350 -100.7125 79° East 502 578 31,000  Level Denver Center
Sun 12:45:55 PM 40.3597 -100.5425 79° East 502 578 31,000  Level Denver Center
Sun 12:46:57 PM 40.3889 -100.3458 79° East 497 572 31,000  Level Denver Center
Sun 12:47:59 PM 40.4133 -100.1783 79° East 496 571 31,000  Level Denver Center
Sun 12:49:01 PM 40.4408 -99.9814 80° East 495 570 31,000  Level Denver Center
Sun 12:50:03 PM 40.4622 -99.8292 79° East 495 570 31,000  Level Denver Center
Sun 12:51:05 PM 40.4922 -99.6178 79° East 495 570 31,000  Level Denver Center
Sun 12:52:07 PM 40.5164 -99.4394 80° East 495 570 31,000  Level Denver Center
Sun 12:53:10 PM 40.5406 -99.2617 80° East 495 570 31,000  Level Denver Center
Sun 12:54:12 PM 40.5647 -99.0836 80° East 496 571 31,000  Level Denver Center
Sun 12:55:14 PM 40.5875 -98.9064 80° East 496 571 31,000 -532 Level Denver Center
Sun 12:56:16 PM 40.6161 -98.6925 80° East 496 571 29,900 -1,742 Descending Denver Center
Sun 12:57:18 PM 40.6383 -98.5203 80° East 487 560 27,400 -2,426 Descending Denver Center
Sun 12:58:32 PM 40.6631 -98.3206 81° East 469 540 24,400 -2,471 Descending Minneapolis Center
Sun 12:59:34 PM 40.6853 -98.1492 80° East 470 541 21,800 -2,468 Descending Minneapolis Center
Sun 01:00:36 PM 40.7064 -97.9844 80° East 465 535 19,300 -2,806 Descending Minneapolis Center
Sun 01:01:38 PM 40.7289 -97.7972 81° East 440 506 16,000 -2,758 Descending Minneapolis Center
Sun 01:02:40 PM 40.7472 -97.6469 81° East 423 487 13,600 -2,422 Descending Minneapolis Center
Sun 01:03:27 PM 40.7397 -97.5283 95° East 406 467 11,600 -2,323 Descending Minneapolis Center
Sun 01:03:42 PM 40.7653 -97.5003 40° Northeast 411 473 11,200 -857 Descending Minneapolis Center
Sun 01:04:44 PM 40.7869 -97.3628 78° East 391 450 10,500 -953 Descending Minneapolis Center
Sun 01:05:29 PM 40.7964 -97.2647 83° East 316 364 9,500 -1,161 Descending Minneapolis Center
Sun 01:05:46 PM 40.8181 -97.2608 North 336 387 9,300 -1,556 Descending Minneapolis Center
Sun 01:06:23 PM 40.8269 -97.1708 83° East 300 345 8,100 -1,742 Descending Minneapolis Center
Sun 01:06:48 PM 40.8542 -97.1347 45° Northeast 311 358 7,500 -1,522 Descending Minneapolis Center
Sun 01:07:30 PM 40.8603 -97.0575 84° East 285 328 6,400 -1,548 Descending Minneapolis Center
Sun 01:07:50 PM 40.8833 -97.0375 33° Northeast 292 336 5,900 -1,574 Descending Minneapolis Center
Sun 01:08:31 PM 40.8906 -96.9639 83° East 275 316 4,800 -1,452 Descending Minneapolis Center
Sun 01:08:52 PM 40.9114 -96.9433 37° Northeast 282 325 4,400 -1,300 Descending Minneapolis Center
Sun 01:09:31 PM 40.9125 -96.8761 89° East 223 257 3,500 -1,065 Descending Minneapolis Center
Sun 01:09:54 PM 40.9258 -96.8642 34° Northeast 249 287 3,300 -873 Descending Minneapolis Center
Sun 01:10:26 PM 40.9053 -96.8217 123° Southeast 137 158 2,700 -871 Descending Minneapolis Center
Sun 01:10:56 PM 40.9097 -96.8094 64° Northeast 194 223 2,400 -787 Descending Minneapolis Center
Sun 01:11:27 PM 40.8803 -96.7886 152° Southeast 131 151 1,900 -774 Descending Minneapolis Center
Sun 01:11:58 PM 40.8844 -96.7853 31° Northeast 148 170 1,600 -387 Descending Minneapolis Center
Sun 01:13:00 PM 40.8483 -96.7544 147° Southeast 136 157 1,300 -290 Descending Minneapolis Center

Login

Don't have an account? Register now (free) for customized features, flight alerts, and more!